createdAt,value
2023-01-27T00:00:38.321Z,30.47
2023-01-27T00:03:04.923Z,29.77
2023-01-27T00:05:31.479Z,31.23
2023-01-27T00:07:58.880Z,32.00
2023-01-27T00:10:26.814Z,27.90
2023-01-27T00:13:12.641Z,30.53
2023-01-27T00:15:40.107Z,31.07
2023-01-27T00:18:08.258Z,31.13
2023-01-27T00:21:19.283Z,28.27
2023-01-27T00:24:05.213Z,37.25
2023-01-27T00:26:31.838Z,37.40
2023-01-27T00:28:58.454Z,31.33
2023-01-27T00:31:43.735Z,34.57
2023-01-27T00:34:10.425Z,34.70
2023-01-27T00:36:39.211Z,31.80
2023-01-27T00:39:07.691Z,33.77
2023-01-27T00:41:34.833Z,33.33
2023-01-27T00:44:02.339Z,33.97
2023-01-27T00:46:29.586Z,30.47
2023-01-27T00:48:56.310Z,31.17
2023-01-27T00:51:23.213Z,31.60
2023-01-27T00:53:50.235Z,34.90
2023-01-27T00:56:16.925Z,35.03
2023-01-27T00:58:43.507Z,30.77
2023-01-27T01:01:13.642Z,32.20
2023-01-27T01:03:40.498Z,32.88
2023-01-27T01:06:12.375Z,34.23
2023-01-27T01:08:39.641Z,31.77
2023-01-27T01:11:07.513Z,34.00
2023-01-27T01:13:34.849Z,30.77
2023-01-27T01:16:06.850Z,32.90
2023-01-27T01:18:33.832Z,31.80
2023-01-27T01:21:00.763Z,34.57
2023-01-27T01:23:27.498Z,30.67
2023-01-27T01:25:56.127Z,29.13
2023-01-27T01:28:23.678Z,28.80
2023-01-27T01:30:50.450Z,30.73
2023-01-27T01:33:17.555Z,29.80
2023-01-27T01:35:44.398Z,34.43
2023-01-27T01:38:11.491Z,29.93
2023-01-27T01:40:43.293Z,32.30
2023-01-27T01:43:20.960Z,27.33
2023-01-27T01:45:59.294Z,33.80
2023-01-27T01:48:37.250Z,30.17
2023-01-27T01:51:44.764Z,31.87
2023-01-27T01:54:16.806Z,30.77
2023-01-27T01:56:55.574Z,32.90
2023-01-27T01:59:26.978Z,28.37
2023-01-27T02:01:56.788Z,31.43
2023-01-27T02:04:26.776Z,32.23
2023-01-27T02:07:07.500Z,29.08
2023-01-27T02:09:34.713Z,27.20
2023-01-27T02:12:01.456Z,23.73
2023-01-27T02:14:28.161Z,19.57
2023-01-27T02:16:55.174Z,22.07
2023-01-27T02:19:27.527Z,23.03
2023-01-27T02:21:56.765Z,22.43
2023-01-27T02:24:34.076Z,21.03
2023-01-27T02:27:00.993Z,16.97
2023-01-27T02:29:28.749Z,16.70
2023-01-27T02:31:59.397Z,16.63
2023-01-27T02:34:30.632Z,18.42
2023-01-27T02:37:03.256Z,18.73
2023-01-27T02:39:36.155Z,18.43
2023-01-27T02:42:05.875Z,19.13
2023-01-27T02:44:33.139Z,22.40
2023-01-27T02:46:59.835Z,18.53
2023-01-27T02:49:26.406Z,21.60
2023-01-27T02:51:54.010Z,17.40
2023-01-27T02:54:20.704Z,17.40
2023-01-27T02:56:47.289Z,16.40
2023-01-27T02:59:13.870Z,19.27
2023-01-27T03:01:40.542Z,16.60
2023-01-27T03:04:08.822Z,18.00
2023-01-27T03:06:35.499Z,18.27
2023-01-27T03:09:02.050Z,17.00
2023-01-27T03:11:47.415Z,17.30
2023-01-27T03:14:14.117Z,16.17
2023-01-27T03:16:59.306Z,15.67
2023-01-27T03:19:26.858Z,19.40
2023-01-27T03:21:54.497Z,14.77
2023-01-27T03:24:21.245Z,19.17
2023-01-27T03:26:47.856Z,17.50
2023-01-27T03:29:33.410Z,16.87
2023-01-27T03:31:59.999Z,16.70
2023-01-27T03:34:26.573Z,16.47
2023-01-27T03:37:11.809Z,18.00
2023-01-27T03:39:57.179Z,15.83
2023-01-27T03:42:42.403Z,15.37
2023-01-27T03:45:28.362Z,14.97
2023-01-27T03:47:54.968Z,14.03
2023-01-27T03:50:31.237Z,12.97
2023-01-27T03:53:03.771Z,15.47
2023-01-27T03:55:32.112Z,14.63
2023-01-27T03:58:18.177Z,17.07
2023-01-27T04:00:47.750Z,14.60
2023-01-27T04:03:32.935Z,15.50
2023-01-27T04:06:22.383Z,15.30
2023-01-27T04:08:49.533Z,14.60
2023-01-27T04:11:34.871Z,14.60
2023-01-27T04:14:03.148Z,12.83
2023-01-27T04:16:30.322Z,17.60
2023-01-27T04:18:57.817Z,14.03
2023-01-27T04:21:25.599Z,14.57
2023-01-27T04:23:53.955Z,14.63
2023-01-27T04:26:21.243Z,15.63
2023-01-27T04:28:48.335Z,14.37
2023-01-27T04:31:15.876Z,17.90
2023-01-27T04:33:43.892Z,18.97
2023-01-27T04:36:12.678Z,17.97
2023-01-27T04:38:39.281Z,15.20
2023-01-27T04:41:05.898Z,16.13
2023-01-27T04:43:52.737Z,15.17
2023-01-27T04:46:19.349Z,16.07
2023-01-27T04:48:46.051Z,14.20
2023-01-27T04:51:12.606Z,16.37
2023-01-27T04:53:39.303Z,18.93
2023-01-27T04:56:14.825Z,17.37
2023-01-27T04:58:41.433Z,17.37
2023-01-27T05:01:08.029Z,15.70
2023-01-27T05:03:34.743Z,18.40
2023-01-27T05:06:01.355Z,18.40
2023-01-27T05:08:28.033Z,16.87
2023-01-27T05:10:54.690Z,19.17
2023-01-27T05:13:21.357Z,19.43
2023-01-27T05:15:48.415Z,19.47
2023-01-27T05:18:15.413Z,20.23
2023-01-27T05:20:42.096Z,19.93
2023-01-27T05:23:26.948Z,19.47
2023-01-27T05:25:53.636Z,23.83
2023-01-27T05:28:20.302Z,19.33
2023-01-27T05:30:46.981Z,18.50
2023-01-27T05:33:13.586Z,20.97
2023-01-27T05:35:40.185Z,20.20
2023-01-27T05:38:06.698Z,21.30
2023-01-27T05:40:33.367Z,23.50
2023-01-27T05:43:00.066Z,21.40
2023-01-27T05:45:26.753Z,21.20
2023-01-27T05:47:53.421Z,20.33
2023-01-27T05:50:20.033Z,21.40
2023-01-27T05:52:46.675Z,22.90
2023-01-27T05:55:13.650Z,21.00
2023-01-27T05:57:40.411Z,24.57
2023-01-27T06:00:07.884Z,21.53
2023-01-27T06:02:34.523Z,22.33
2023-01-27T06:05:01.219Z,23.37
2023-01-27T06:07:27.763Z,22.03
2023-01-27T06:09:54.374Z,22.57
2023-01-27T06:12:20.962Z,21.00
2023-01-27T06:14:47.661Z,21.73
2023-01-27T06:17:14.877Z,24.93
2023-01-27T06:19:41.537Z,24.23
2023-01-27T06:22:08.102Z,21.67
2023-01-27T06:24:34.742Z,19.97
2023-01-27T06:27:01.410Z,21.17
2023-01-27T06:29:28.028Z,22.13
2023-01-27T06:31:54.753Z,22.50
2023-01-27T06:34:21.425Z,23.50
2023-01-27T06:36:48.695Z,23.87
2023-01-27T06:39:16.740Z,23.17
2023-01-27T06:41:43.616Z,24.20
2023-01-27T06:44:10.183Z,22.77
2023-01-27T06:46:36.829Z,21.60
2023-01-27T06:49:03.535Z,20.97
2023-01-27T06:51:30.290Z,25.80
2023-01-27T06:54:03.061Z,23.67
2023-01-27T06:56:29.591Z,19.03
2023-01-27T06:58:56.245Z,25.33
2023-01-27T07:01:23.053Z,21.80
2023-01-27T07:03:49.636Z,24.10
2023-01-27T07:06:19.066Z,24.53
2023-01-27T07:08:47.213Z,20.93
2023-01-27T07:11:14.246Z,22.73
2023-01-27T07:13:40.885Z,24.20
2023-01-27T07:16:08.056Z,20.67
2023-01-27T07:18:34.765Z,21.80
2023-01-27T07:21:04.651Z,22.27
2023-01-27T07:23:31.224Z,20.47
2023-01-27T07:26:00.067Z,20.77
2023-01-27T07:28:27.482Z,25.73
2023-01-27T07:30:54.126Z,19.20
2023-01-27T07:33:20.853Z,26.30
2023-01-27T07:48:08.468Z,21.67
2023-01-27T07:50:35.768Z,21.77
2023-01-27T07:53:05.067Z,24.83
2023-01-27T07:55:32.826Z,19.47
2023-01-27T07:57:59.784Z,21.47
2023-01-27T08:00:28.309Z,21.00
2023-01-27T08:02:56.269Z,23.57
2023-01-27T08:05:23.226Z,23.40
2023-01-27T08:07:50.548Z,22.40
2023-01-27T08:10:18.894Z,25.33
2023-01-27T08:12:46.748Z,23.67
2023-01-27T08:15:15.479Z,27.27
2023-01-27T08:17:43.853Z,27.50
2023-01-27T08:20:11.545Z,24.63
2023-01-27T08:22:38.254Z,27.03
2023-01-27T08:25:05.214Z,22.83
2023-01-27T08:27:31.858Z,25.13
2023-01-27T08:29:58.449Z,24.80
2023-01-27T08:32:25.061Z,24.93
2023-01-27T08:34:51.680Z,25.37
2023-01-27T08:37:18.340Z,23.03
2023-01-27T08:39:44.918Z,22.53
2023-01-27T08:42:11.529Z,26.37
2023-01-27T08:44:38.274Z,23.67
2023-01-27T08:47:04.789Z,25.20
2023-01-27T08:49:31.558Z,23.97
2023-01-27T08:51:58.149Z,25.57
2023-01-27T08:54:24.745Z,24.97
2023-01-27T08:56:51.417Z,24.47
2023-01-27T08:59:18.401Z,26.40
2023-01-27T09:01:45.287Z,23.77
2023-01-27T09:04:12.022Z,25.63
2023-01-27T09:06:38.699Z,23.53
2023-01-27T09:09:12.161Z,24.20
2023-01-27T09:11:41.982Z,23.03
2023-01-27T09:14:09.019Z,22.70
2023-01-27T09:16:35.731Z,21.97
2023-01-27T09:19:02.477Z,24.47
2023-01-27T09:21:36.680Z,24.43
2023-01-27T09:24:03.465Z,24.37
2023-01-27T09:26:30.030Z,25.13
2023-01-27T09:28:56.760Z,28.77
2023-01-27T09:31:23.333Z,29.17
2023-01-27T09:33:50.097Z,25.57
2023-01-27T09:36:19.346Z,22.20
2023-01-27T09:39:00.531Z,23.43
2023-01-27T09:42:08.712Z,22.83
2023-01-27T09:45:07.447Z,21.30
2023-01-27T09:47:46.538Z,24.03
2023-01-27T09:50:29.386Z,21.07
2023-01-27T09:53:18.784Z,20.87
2023-01-27T09:56:01.850Z,21.87
2023-01-27T09:58:47.639Z,25.30
2023-01-27T10:01:33.207Z,20.73
2023-01-27T10:04:30.370Z,24.17
2023-01-27T10:07:24.646Z,21.97
2023-01-27T10:09:53.938Z,25.70
2023-01-27T10:12:49.757Z,23.73
2023-01-27T10:15:39.589Z,19.37
2023-01-27T10:18:24.747Z,22.37
2023-01-27T10:21:01.244Z,24.40
2023-01-27T10:23:51.859Z,23.40
2023-01-27T10:26:51.833Z,23.30
2023-01-27T10:29:24.294Z,22.77
2023-01-27T10:32:00.767Z,23.77
2023-01-27T10:34:37.783Z,23.10
2023-01-27T10:37:23.007Z,20.83
2023-01-27T10:40:02.875Z,21.20
2023-01-27T10:42:32.671Z,24.30
2023-01-27T10:45:25.098Z,19.65
2023-01-27T10:47:54.338Z,20.23
2023-01-27T10:50:30.894Z,20.40
2023-01-27T10:53:05.542Z,18.97
2023-01-27T10:55:55.229Z,18.20
2023-01-27T10:58:30.806Z,20.57
2023-01-27T11:01:19.695Z,20.43
2023-01-27T11:03:55.980Z,21.20
2023-01-27T11:06:27.878Z,20.30
2023-01-27T11:09:05.394Z,18.20
2023-01-27T11:11:47.370Z,17.77
2023-01-27T11:14:48.376Z,22.20
2023-01-27T11:17:34.833Z,22.10
2023-01-27T11:20:14.091Z,23.87
2023-01-27T11:23:10.380Z,24.27
2023-01-27T11:26:04.551Z,20.50
2023-01-27T11:28:50.009Z,21.80
2023-01-27T11:31:51.919Z,22.43
2023-01-27T11:34:28.679Z,21.83
2023-01-27T11:36:55.488Z,22.70
2023-01-27T11:39:22.219Z,24.57
2023-01-27T11:41:54.365Z,19.90
2023-01-27T11:44:24.889Z,23.63
2023-01-27T11:46:53.803Z,24.38
2023-01-27T11:49:34.493Z,20.20
2023-01-27T11:52:31.466Z,24.05
2023-01-27T11:55:13.896Z,19.87
2023-01-27T11:57:45.779Z,20.30
2023-01-27T12:00:26.255Z,20.57
2023-01-27T12:03:03.802Z,20.58
2023-01-27T12:05:34.887Z,21.57
2023-01-27T12:08:04.073Z,21.07
2023-01-27T12:10:30.757Z,20.87
2023-01-27T12:13:00.506Z,23.73
2023-01-27T12:15:30.212Z,18.63
2023-01-27T12:18:01.041Z,19.33
2023-01-27T12:23:05.270Z,22.53
2023-01-27T12:25:43.532Z,25.87
2023-01-27T12:28:24.997Z,20.07
2023-01-27T12:30:54.354Z,20.60
2023-01-27T12:33:27.142Z,20.00
2023-01-27T12:35:58.679Z,23.23
2023-01-27T12:38:29.004Z,21.10
2023-01-27T12:41:06.969Z,24.25
2023-01-27T12:43:50.708Z,20.67
2023-01-27T12:46:26.039Z,22.50
2023-01-27T12:49:00.365Z,25.57
2023-01-27T12:51:43.473Z,22.13
2023-01-27T12:54:25.354Z,23.10
2023-01-27T12:56:54.241Z,20.17
2023-01-27T12:59:24.526Z,21.13
2023-01-27T13:02:12.295Z,23.67
2023-01-27T13:04:39.028Z,23.60
2023-01-27T13:07:12.209Z,17.50
2023-01-27T13:09:48.588Z,22.53
2023-01-27T13:12:22.679Z,25.73
2023-01-27T13:14:58.489Z,19.60
2023-01-27T13:17:42.414Z,22.10
2023-01-27T13:20:23.384Z,20.73
2023-01-27T13:28:08.967Z,24.20
2023-01-27T13:30:43.266Z,24.80
2023-01-27T13:33:30.552Z,30.17
2023-01-27T13:36:07.433Z,24.07
2023-01-27T13:38:57.294Z,27.20
2023-01-27T13:41:46.649Z,23.93
2023-01-27T13:44:35.562Z,23.97
2023-01-27T13:47:06.820Z,26.63
2023-01-27T13:49:43.291Z,27.37
2023-01-27T13:52:11.952Z,27.73
2023-01-27T13:54:39.249Z,23.33
2023-01-27T13:58:00.194Z,23.53
2023-01-27T14:00:45.643Z,21.00
2023-01-27T14:03:36.300Z,22.27
2023-01-27T14:06:12.259Z,23.35
2023-01-27T14:09:01.943Z,19.23
2023-01-27T14:12:06.629Z,23.10
2023-01-27T14:14:57.385Z,21.57
2023-01-27T14:17:37.109Z,23.00
2023-01-27T14:20:28.142Z,22.93
2023-01-27T14:23:43.248Z,21.87
2023-01-27T14:26:09.980Z,20.07
2023-01-27T14:28:53.030Z,23.93
2023-01-27T14:31:24.521Z,24.90
2023-01-27T14:34:32.541Z,20.97
2023-01-27T14:37:14.646Z,19.57
2023-01-27T14:39:47.257Z,18.93
2023-01-27T14:42:37.719Z,17.00
2023-01-27T14:45:21.889Z,17.60
2023-01-27T14:48:10.029Z,15.40
2023-01-27T14:50:52.967Z,14.53
2023-01-27T14:53:34.222Z,17.27
2023-01-27T14:56:13.104Z,13.03
2023-01-27T14:59:03.451Z,13.13
2023-01-27T15:01:39.642Z,11.65
2023-01-27T15:04:24.465Z,11.07
2023-01-27T15:07:02.815Z,9.60
2023-01-27T15:09:38.308Z,8.00
2023-01-27T15:12:35.880Z,11.37
2023-01-27T15:15:03.275Z,12.27
2023-01-27T15:17:44.090Z,13.50
2023-01-27T15:20:48.623Z,12.65
2023-01-27T15:23:18.145Z,14.07
2023-01-27T15:25:48.715Z,14.10
2023-01-27T15:28:18.453Z,15.60
2023-01-27T15:31:21.632Z,13.10
2023-01-27T15:34:03.630Z,12.93
2023-01-27T15:36:38.484Z,12.50
2023-01-27T15:39:11.376Z,10.77
2023-01-27T15:41:38.737Z,10.47
2023-01-27T15:44:33.560Z,9.43
2023-01-27T15:47:19.398Z,9.27
2023-01-27T15:49:49.158Z,8.47
2023-01-27T15:52:25.395Z,11.40
2023-01-27T15:54:55.559Z,9.17
2023-01-27T15:57:27.826Z,9.27
2023-01-27T15:59:59.507Z,10.03
2023-01-27T16:02:29.597Z,10.57
2023-01-27T16:05:05.427Z,9.27
2023-01-27T16:07:36.517Z,10.17
2023-01-27T16:10:06.135Z,11.17
2023-01-27T16:12:40.259Z,13.07
2023-01-27T16:15:29.650Z,10.33
2023-01-27T16:18:09.340Z,14.43
2023-01-27T16:21:00.521Z,12.93
2023-01-27T16:23:43.454Z,11.60
2023-01-27T16:26:30.254Z,17.00
2023-01-27T16:29:10.530Z,12.40
2023-01-27T16:31:39.586Z,13.57
2023-01-27T16:34:18.055Z,12.53
2023-01-27T16:36:44.759Z,13.70
2023-01-27T16:39:18.552Z,12.60
2023-01-27T16:41:53.698Z,15.27
2023-01-27T16:44:27.268Z,15.17
2023-01-27T16:47:00.224Z,12.40
2023-01-27T16:49:39.647Z,13.13
2023-01-27T16:52:21.257Z,17.17
2023-01-27T16:54:54.511Z,16.53
2023-01-27T16:57:31.636Z,12.00
2023-01-27T17:00:02.925Z,15.10
2023-01-27T17:02:32.277Z,15.77
2023-01-27T17:05:03.154Z,16.20
2023-01-27T17:10:00.285Z,14.47
2023-01-27T17:12:43.164Z,18.47
2023-01-27T17:15:34.570Z,15.20
2023-01-27T17:18:03.914Z,15.17
2023-01-27T17:20:39.179Z,15.80
2023-01-27T17:23:05.889Z,17.13
2023-01-27T17:25:35.756Z,54.70
2023-01-27T17:28:12.194Z,16.13
2023-01-27T17:30:42.142Z,16.03
2023-01-27T17:33:17.073Z,17.48
2023-01-27T17:35:50.053Z,15.27
2023-01-27T17:38:24.285Z,16.50
2023-01-27T17:40:54.052Z,18.57
2023-01-27T17:43:34.499Z,17.33
2023-01-27T17:46:19.542Z,18.27
2023-01-27T17:48:53.828Z,15.87
2023-01-27T17:51:29.717Z,15.20
2023-01-27T17:53:56.830Z,17.53
2023-01-27T17:56:33.037Z,18.10
2023-01-27T17:59:09.435Z,18.43
2023-01-27T18:01:36.267Z,16.83
2023-01-27T18:04:04.809Z,15.07
2023-01-27T18:06:31.556Z,17.60
2023-01-27T18:09:02.379Z,16.70
2023-01-27T18:11:33.923Z,13.90
2023-01-27T18:14:08.710Z,15.13
2023-01-27T18:16:36.848Z,17.30
2023-01-27T18:19:09.447Z,15.47
2023-01-27T18:21:36.836Z,15.83
2023-01-27T18:24:20.213Z,13.83
2023-01-27T18:26:49.036Z,16.13
2023-01-27T18:29:31.279Z,15.60
2023-01-27T18:32:07.886Z,14.80
2023-01-27T18:34:46.241Z,17.30
2023-01-27T18:37:25.101Z,13.60
2023-01-27T18:39:52.119Z,14.07
2023-01-27T18:42:20.399Z,14.27
2023-01-27T18:44:51.776Z,17.23
2023-01-27T18:47:18.431Z,19.13
2023-01-27T18:50:13.676Z,18.67
2023-01-27T18:52:42.411Z,18.47
2023-01-27T18:55:22.645Z,16.30
2023-01-27T18:57:57.519Z,17.63
2023-01-27T19:00:31.481Z,18.40
2023-01-27T19:03:01.195Z,18.87
2023-01-27T19:05:35.349Z,18.67
2023-01-27T19:08:03.107Z,16.27
2023-01-27T19:10:32.750Z,19.63
2023-01-27T19:13:01.571Z,19.77
2023-01-27T19:15:34.341Z,18.20
2023-01-27T19:18:07.149Z,20.93
2023-01-27T19:20:33.694Z,17.93
2023-01-27T19:23:00.507Z,19.27
2023-01-27T19:25:34.910Z,21.60
2023-01-27T19:28:04.463Z,18.17
2023-01-27T19:30:36.330Z,19.17
2023-01-27T19:33:15.591Z,21.50
2023-01-27T19:35:44.375Z,21.73
2023-01-27T19:38:12.473Z,23.90
2023-01-27T19:40:39.981Z,21.40
2023-01-27T19:43:07.922Z,21.30
2023-01-27T19:45:34.824Z,18.67
2023-01-27T19:48:01.736Z,19.20
2023-01-27T19:50:32.480Z,19.50
2023-01-27T19:52:59.509Z,20.08
2023-01-27T19:55:26.187Z,19.47
2023-01-27T19:57:53.105Z,18.63
2023-01-27T20:00:25.944Z,20.17
2023-01-27T20:02:52.652Z,22.73
2023-01-27T20:05:19.632Z,19.07
2023-01-27T20:07:47.342Z,22.33
2023-01-27T20:10:19.779Z,19.67
2023-01-27T20:12:59.330Z,21.03
2023-01-27T20:15:28.809Z,20.43
2023-01-27T20:17:55.859Z,24.60
2023-01-27T20:20:24.425Z,20.27
2023-01-27T20:22:52.852Z,24.30
2023-01-27T20:25:22.718Z,21.37
2023-01-27T20:27:54.713Z,19.93
2023-01-27T20:30:25.033Z,21.47
2023-01-27T20:32:54.372Z,18.77
2023-01-27T20:35:22.041Z,21.08
2023-01-27T20:37:49.712Z,23.27
2023-01-27T20:40:21.851Z,22.60
2023-01-27T20:42:48.516Z,20.03
2023-01-27T20:45:16.529Z,21.73
2023-01-27T20:47:47.778Z,21.07
2023-01-27T20:52:40.901Z,20.73
2023-01-27T20:55:09.926Z,20.27
2023-01-27T20:57:36.626Z,20.30
2023-01-27T21:00:03.656Z,17.40
2023-01-27T21:02:30.620Z,22.80
2023-01-27T21:05:19.549Z,20.27
2023-01-27T21:07:46.179Z,17.97
2023-01-27T21:10:12.946Z,20.73
2023-01-27T21:12:39.540Z,20.57
2023-01-27T21:15:09.978Z,18.43
2023-01-27T21:17:37.484Z,21.33
2023-01-27T21:20:04.471Z,18.80
2023-01-27T21:22:31.158Z,20.67
2023-01-27T21:24:57.831Z,18.33
2023-01-27T21:27:24.487Z,20.30
2023-01-27T21:29:52.982Z,21.40
2023-01-27T21:32:19.634Z,19.40
2023-01-27T21:34:46.164Z,21.27
2023-01-27T21:37:12.835Z,17.47
2023-01-27T21:39:39.458Z,20.83
2023-01-27T21:42:06.052Z,18.47
2023-01-27T21:44:52.953Z,18.77
2023-01-27T21:47:19.965Z,17.53
2023-01-27T21:50:05.128Z,18.30
2023-01-27T21:52:39.146Z,20.10
2023-01-27T21:55:08.140Z,16.07
2023-01-27T21:57:35.443Z,16.30
2023-01-27T22:00:02.365Z,15.50
2023-01-27T22:02:29.755Z,17.77
2023-01-27T22:04:56.343Z,17.07
2023-01-27T22:07:23.222Z,20.40
2023-01-27T22:09:50.346Z,15.93
2023-01-27T22:12:17.206Z,14.80
2023-01-27T22:14:44.232Z,15.97
2023-01-27T22:17:11.043Z,15.13
2023-01-27T22:19:39.156Z,16.47
2023-01-27T22:22:07.724Z,16.60
2023-01-27T22:24:34.287Z,15.97
2023-01-27T22:27:01.025Z,16.70
2023-01-27T22:29:27.731Z,16.23
2023-01-27T22:31:54.626Z,17.23
2023-01-27T22:34:21.233Z,16.67
2023-01-27T22:36:49.836Z,17.77
2023-01-27T22:39:17.015Z,22.30
2023-01-27T22:41:45.132Z,16.50
2023-01-27T22:44:16.144Z,16.60
2023-01-27T22:49:11.224Z,16.77
2023-01-27T22:51:38.268Z,18.23
2023-01-27T22:54:05.045Z,16.47
2023-01-27T22:56:31.834Z,17.63
2023-01-27T22:58:58.503Z,19.23
2023-01-27T23:01:25.196Z,16.83
2023-01-27T23:03:51.793Z,18.13
2023-01-27T23:06:18.619Z,19.80
2023-01-27T23:08:45.251Z,17.43
2023-01-27T23:11:12.126Z,22.43
2023-01-27T23:13:39.829Z,17.63
2023-01-27T23:16:06.728Z,18.53
2023-01-27T23:18:33.533Z,18.10
2023-01-27T23:21:04.980Z,16.83
2023-01-27T23:23:32.229Z,18.90
2023-01-27T23:25:59.093Z,20.33
2023-01-27T23:28:25.935Z,20.57
2023-01-27T23:30:52.664Z,18.60
2023-01-27T23:33:20.349Z,17.37
2023-01-27T23:35:48.403Z,19.93
2023-01-27T23:38:30.558Z,19.03
2023-01-27T23:41:12.708Z,18.97
2023-01-27T23:46:06.012Z,21.03
2023-01-27T23:48:32.713Z,19.30
2023-01-27T23:50:59.314Z,20.37
2023-01-27T23:53:25.964Z,16.67
2023-01-27T23:55:59.868Z,19.93
2023-01-27T23:58:26.802Z,18.53
